createdAt,value
2023-05-05T00:01:57.029Z,100.00
2023-05-05T00:04:26.383Z,100.00
2023-05-05T00:06:55.736Z,100.00
2023-05-05T00:09:25.037Z,100.00
2023-05-05T00:11:54.100Z,100.00
2023-05-05T00:14:24.843Z,100.00
2023-05-05T00:16:54.494Z,100.00
2023-05-05T00:19:23.658Z,100.00
2023-05-05T00:21:52.928Z,100.00
2023-05-05T00:24:22.132Z,100.00
2023-05-05T00:26:51.175Z,100.00
2023-05-05T00:29:20.265Z,100.00
2023-05-05T00:31:52.063Z,100.00
2023-05-05T00:34:22.368Z,100.00
2023-05-05T00:36:51.637Z,100.00
2023-05-05T00:39:20.625Z,100.00
2023-05-05T00:41:49.710Z,100.00
2023-05-05T00:44:18.820Z,100.00
2023-05-05T00:46:47.971Z,100.00
2023-05-05T00:49:18.429Z,100.00
2023-05-05T00:51:47.668Z,100.00
2023-05-05T00:54:17.693Z,100.00
2023-05-05T00:56:48.237Z,100.00
2023-05-05T00:59:17.633Z,100.00
2023-05-05T01:01:46.971Z,100.00
2023-05-05T01:04:16.187Z,100.00
2023-05-05T01:07:00.857Z,100.00
2023-05-05T01:09:45.769Z,100.00
2023-05-05T01:12:26.025Z,100.00
2023-05-05T01:15:03.936Z,100.00
2023-05-05T01:17:42.448Z,100.00
2023-05-05T01:20:20.831Z,100.00
2023-05-05T01:22:54.989Z,100.00
2023-05-05T01:25:46.096Z,100.00
2023-05-05T01:28:29.177Z,100.00
2023-05-05T01:31:10.820Z,100.00
2023-05-05T01:33:49.107Z,100.00
2023-05-05T01:36:24.359Z,100.00
2023-05-05T01:38:58.890Z,100.00
2023-05-05T01:41:32.059Z,100.00
2023-05-05T01:44:04.030Z,100.00
2023-05-05T01:46:35.386Z,100.00
2023-05-05T01:49:07.015Z,100.00
2023-05-05T01:51:36.929Z,100.00
2023-05-05T01:54:09.398Z,100.00
2023-05-05T01:56:41.345Z,100.00
2023-05-05T01:59:12.459Z,100.00
2023-05-05T02:01:44.884Z,100.00
2023-05-05T02:04:16.309Z,100.00
2023-05-05T02:06:50.472Z,100.00
2023-05-05T02:09:20.226Z,100.00
2023-05-05T02:11:50.610Z,100.00
2023-05-05T02:14:21.956Z,100.00
2023-05-05T02:16:53.501Z,100.00
2023-05-05T02:19:28.958Z,100.00
2023-05-05T02:21:58.400Z,100.00
2023-05-05T02:24:27.761Z,100.00
2023-05-05T02:26:59.437Z,100.00
2023-05-05T02:29:33.120Z,100.00
2023-05-05T02:32:06.464Z,100.00
2023-05-05T02:34:41.451Z,100.00
2023-05-05T02:37:19.357Z,100.00
2023-05-05T02:39:59.081Z,100.00
2023-05-05T02:42:37.651Z,100.00
2023-05-05T02:45:23.772Z,100.00
2023-05-05T02:47:53.360Z,100.00
2023-05-05T02:50:26.154Z,100.00
2023-05-05T02:53:06.841Z,100.00
2023-05-05T02:55:43.188Z,100.00
2023-05-05T02:58:23.065Z,100.00
2023-05-05T03:01:03.141Z,100.00
2023-05-05T03:03:45.559Z,100.00
2023-05-05T03:06:21.458Z,100.00
2023-05-05T03:08:56.514Z,100.00
2023-05-05T03:11:33.121Z,100.00
2023-05-05T03:14:10.177Z,100.00
2023-05-05T03:16:43.266Z,100.00
2023-05-05T03:19:15.681Z,100.00
2023-05-05T03:21:46.784Z,100.00
2023-05-05T03:24:16.851Z,100.00
2023-05-05T03:26:51.047Z,100.00
2023-05-05T03:29:23.710Z,100.00
2023-05-05T03:31:53.096Z,100.00
2023-05-05T03:34:22.575Z,100.00
2023-05-05T03:36:55.036Z,100.00
2023-05-05T03:39:24.431Z,100.00
2023-05-05T03:41:53.647Z,100.00
2023-05-05T03:44:23.987Z,100.00
2023-05-05T03:46:53.206Z,100.00
2023-05-05T03:49:28.536Z,100.00
2023-05-05T03:52:00.319Z,100.00
2023-05-05T03:54:30.038Z,100.00
2023-05-05T03:57:00.215Z,100.00
2023-05-05T03:59:31.516Z,100.00
2023-05-05T04:02:00.921Z,100.00
2023-05-05T04:04:29.975Z,100.00
2023-05-05T04:07:00.478Z,100.00
2023-05-05T04:09:29.620Z,100.00
2023-05-05T04:11:59.065Z,100.00
2023-05-05T04:14:29.152Z,100.00
2023-05-05T04:16:58.527Z,100.00
2023-05-05T04:19:28.056Z,100.00
2023-05-05T04:21:57.268Z,100.00
2023-05-05T04:24:27.807Z,100.00
2023-05-05T04:26:59.042Z,100.00
2023-05-05T04:29:30.265Z,100.00
2023-05-05T04:31:59.333Z,100.00
2023-05-05T04:34:28.528Z,100.00
2023-05-05T04:36:57.535Z,100.00
2023-05-05T04:39:35.463Z,100.00
2023-05-05T04:42:06.654Z,100.00
2023-05-05T04:44:36.047Z,100.00
2023-05-05T04:47:06.094Z,100.00
2023-05-05T04:49:35.888Z,100.00
2023-05-05T04:52:05.491Z,100.00
2023-05-05T04:54:39.597Z,100.00
2023-05-05T04:57:09.858Z,100.00
2023-05-05T04:59:38.906Z,100.00
2023-05-05T05:02:08.013Z,100.00
2023-05-05T05:04:37.523Z,100.00
2023-05-05T05:07:06.679Z,100.00
2023-05-05T05:09:38.486Z,100.00
2023-05-05T05:12:10.462Z,100.00
2023-05-05T05:14:43.966Z,100.00
2023-05-05T05:17:13.401Z,100.00
2023-05-05T05:19:43.278Z,100.00
2023-05-05T05:22:13.201Z,100.00
2023-05-05T05:24:45.979Z,100.00
2023-05-05T05:27:18.937Z,100.00
2023-05-05T05:29:51.614Z,100.00
2023-05-05T05:32:21.181Z,100.00
2023-05-05T05:34:51.104Z,100.00
2023-05-05T05:37:20.389Z,100.00
2023-05-05T05:39:55.355Z,100.00
2023-05-05T05:42:25.944Z,100.00
2023-05-05T05:44:55.678Z,100.00
2023-05-05T05:47:25.021Z,100.00
2023-05-05T05:49:54.350Z,100.00
2023-05-05T05:52:23.507Z,100.00
2023-05-05T05:54:54.142Z,100.00
2023-05-05T05:57:24.708Z,100.00
2023-05-05T05:59:55.355Z,100.00
2023-05-05T06:02:26.479Z,100.00
2023-05-05T06:04:56.659Z,100.00
2023-05-05T06:07:26.496Z,100.00
2023-05-05T06:10:14.465Z,100.00
2023-05-05T06:13:05.660Z,100.00
2023-05-05T06:15:39.171Z,100.00
2023-05-05T06:18:08.801Z,100.00
2023-05-05T06:20:38.016Z,100.00
2023-05-05T06:23:07.878Z,100.00
2023-05-05T06:25:41.548Z,100.00
2023-05-05T06:28:16.343Z,100.00
2023-05-05T06:30:45.720Z,100.00
2023-05-05T06:33:18.604Z,100.00
2023-05-05T06:35:49.579Z,100.00
2023-05-05T06:38:18.728Z,99.99
2023-05-05T06:40:50.860Z,97.70
2023-05-05T06:43:22.074Z,86.72
2023-05-05T06:45:56.801Z,87.09
2023-05-05T06:48:27.643Z,84.18
2023-05-05T06:50:59.494Z,83.48
2023-05-05T06:53:28.967Z,92.47
2023-05-05T06:55:59.750Z,86.81
2023-05-05T06:58:29.345Z,82.72
2023-05-05T07:01:01.328Z,83.35
2023-05-05T07:03:31.112Z,82.57
2023-05-05T07:06:02.053Z,80.90
2023-05-05T07:08:31.205Z,80.06
2023-05-05T07:11:02.504Z,77.66
2023-05-05T07:13:32.267Z,80.72
2023-05-05T07:16:01.916Z,85.98
2023-05-05T07:18:31.076Z,82.63
2023-05-05T07:21:01.427Z,82.16
2023-05-05T07:23:32.825Z,84.81
2023-05-05T07:26:03.285Z,81.98
2023-05-05T07:28:32.152Z,81.84
2023-05-05T07:31:06.898Z,81.08
2023-05-05T07:33:36.492Z,74.67
2023-05-05T07:36:06.422Z,75.79
2023-05-05T07:38:37.515Z,77.73
2023-05-05T07:41:08.048Z,76.39
2023-05-05T07:43:38.819Z,74.28
2023-05-05T07:46:08.881Z,71.15
2023-05-05T07:48:39.146Z,67.42
2023-05-05T07:51:08.963Z,63.85
2023-05-05T07:53:40.012Z,65.20
2023-05-05T07:56:11.035Z,66.07
2023-05-05T07:58:40.164Z,63.04
2023-05-05T08:01:11.249Z,63.04
2023-05-05T08:03:40.893Z,60.85
2023-05-05T08:06:11.058Z,65.63
2023-05-05T08:08:42.692Z,64.77
2023-05-05T08:11:13.200Z,61.82
2023-05-05T08:13:43.358Z,58.34
2023-05-05T08:16:13.077Z,60.52
2023-05-05T08:18:43.048Z,58.63
2023-05-05T08:21:13.574Z,58.50
2023-05-05T08:23:46.918Z,57.59
2023-05-05T08:26:17.812Z,53.28
2023-05-05T08:28:48.732Z,51.81
2023-05-05T08:31:18.110Z,52.05
2023-05-05T08:33:47.255Z,49.48
2023-05-05T08:36:18.397Z,48.90
2023-05-05T08:38:47.927Z,48.18
2023-05-05T08:41:20.280Z,50.37
2023-05-05T08:43:59.290Z,48.76
2023-05-05T08:46:31.257Z,48.30
2023-05-05T08:49:07.298Z,46.86
2023-05-05T08:51:43.413Z,48.11
2023-05-05T08:54:19.220Z,46.97
2023-05-05T08:56:52.353Z,46.65
2023-05-05T08:59:30.418Z,47.84
2023-05-05T09:02:02.678Z,48.34
2023-05-05T09:04:32.491Z,47.61
2023-05-05T09:07:04.203Z,47.91
2023-05-05T09:09:34.153Z,49.12
2023-05-05T09:12:05.079Z,50.02
2023-05-05T09:14:34.435Z,48.22
2023-05-05T09:17:04.956Z,47.70
2023-05-05T09:19:34.201Z,47.81
2023-05-05T09:22:03.475Z,48.39
2023-05-05T09:24:32.641Z,47.05
2023-05-05T09:27:02.296Z,48.59
2023-05-05T09:29:32.856Z,47.65
2023-05-05T09:32:05.880Z,47.36
2023-05-05T09:34:35.938Z,47.32
2023-05-05T09:37:06.182Z,47.57
2023-05-05T09:39:35.971Z,47.01
2023-05-05T09:42:05.279Z,46.49
2023-05-05T09:44:36.937Z,47.43
2023-05-05T09:47:18.001Z,48.12
2023-05-05T09:50:00.932Z,49.46
2023-05-05T09:52:30.795Z,48.20
2023-05-05T09:54:59.798Z,47.44
2023-05-05T09:57:30.819Z,47.51
2023-05-05T10:00:02.686Z,49.23
2023-05-05T10:02:41.170Z,46.07
2023-05-05T10:05:12.850Z,45.75
2023-05-05T10:07:43.554Z,44.38
2023-05-05T10:10:16.429Z,45.36
2023-05-05T10:12:48.015Z,43.45
2023-05-05T10:15:19.167Z,42.51
2023-05-05T10:18:06.052Z,39.75
2023-05-05T10:20:39.736Z,38.00
2023-05-05T10:23:16.249Z,34.05
2023-05-05T10:25:52.769Z,34.05
2023-05-05T10:28:32.996Z,34.12
2023-05-05T10:31:10.064Z,31.28
2023-05-05T10:33:54.485Z,31.39
2023-05-05T10:36:24.850Z,29.78
2023-05-05T10:38:59.641Z,33.06
2023-05-05T10:41:36.569Z,31.05
2023-05-05T10:44:07.305Z,29.57
2023-05-05T10:46:40.629Z,28.53
2023-05-05T10:49:16.956Z,28.17
2023-05-05T10:51:55.086Z,27.16
2023-05-05T10:54:31.779Z,26.42
2023-05-05T10:57:02.770Z,26.54
2023-05-05T10:59:42.492Z,26.06
2023-05-05T11:02:23.921Z,24.92
2023-05-05T11:05:07.021Z,26.09
2023-05-05T11:07:36.131Z,25.21
2023-05-05T11:10:06.637Z,24.49
2023-05-05T11:13:14.381Z,23.13
2023-05-05T11:15:43.914Z,24.79
2023-05-05T11:18:38.815Z,28.02
2023-05-05T11:21:17.189Z,28.37
2023-05-05T11:23:51.079Z,27.07
2023-05-05T11:26:36.416Z,25.33
2023-05-05T11:29:06.540Z,25.69
2023-05-05T11:31:35.713Z,23.80
2023-05-05T11:34:29.406Z,22.47
2023-05-05T11:37:01.894Z,21.44
2023-05-05T11:39:39.628Z,21.20
2023-05-05T11:42:25.920Z,23.66
2023-05-05T11:44:55.996Z,23.33
2023-05-05T11:47:32.946Z,22.04
2023-05-05T11:50:21.785Z,19.34
2023-05-05T11:52:51.188Z,21.42
2023-05-05T11:55:26.992Z,19.75
2023-05-05T11:57:56.092Z,20.95
2023-05-05T12:00:35.306Z,19.63
2023-05-05T12:03:05.779Z,20.21
2023-05-05T12:05:37.075Z,19.28
2023-05-05T12:08:06.686Z,20.93
2023-05-05T12:10:36.398Z,20.76
2023-05-05T12:13:05.863Z,20.11
2023-05-05T12:15:35.543Z,21.55
2023-05-05T12:18:06.901Z,20.75
2023-05-05T12:20:37.717Z,20.23
2023-05-05T12:23:08.336Z,20.78
2023-05-05T12:25:50.098Z,19.97
2023-05-05T12:28:20.854Z,19.50
2023-05-05T12:30:58.782Z,18.83
2023-05-05T12:33:29.311Z,19.29
2023-05-05T12:35:59.922Z,21.76
2023-05-05T12:38:29.430Z,20.39
2023-05-05T12:40:58.727Z,20.99
2023-05-05T12:43:31.229Z,20.36
2023-05-05T12:46:05.138Z,19.11
2023-05-05T12:48:38.226Z,18.85
2023-05-05T12:51:20.114Z,18.81
2023-05-05T12:53:50.208Z,20.38
2023-05-05T12:56:51.458Z,19.16
2023-05-05T12:59:32.835Z,19.06
2023-05-05T13:02:02.580Z,18.51
2023-05-05T13:04:31.806Z,19.20
2023-05-05T13:07:12.959Z,19.40
2023-05-05T13:09:43.134Z,18.82
2023-05-05T13:12:12.899Z,17.59
2023-05-05T13:14:46.573Z,17.77
2023-05-05T13:17:16.097Z,18.88
2023-05-05T13:19:47.261Z,17.69
2023-05-05T13:22:18.147Z,18.16
2023-05-05T13:24:52.372Z,19.78
2023-05-05T13:27:21.955Z,18.67
2023-05-05T13:29:51.557Z,21.51
2023-05-05T13:32:20.981Z,20.25
2023-05-05T13:34:52.762Z,18.78
2023-05-05T13:37:23.543Z,19.45
2023-05-05T13:39:53.196Z,19.09
2023-05-05T13:42:22.506Z,18.34
2023-05-05T13:44:55.784Z,18.69
2023-05-05T13:47:35.744Z,18.20
2023-05-05T13:50:05.767Z,18.64
2023-05-05T13:52:36.363Z,18.26
2023-05-05T13:55:09.409Z,17.94
2023-05-05T13:57:39.498Z,21.94
2023-05-05T14:00:09.869Z,23.61
2023-05-05T14:02:39.003Z,23.02
2023-05-05T14:05:09.883Z,23.29
2023-05-05T14:07:40.494Z,23.81
2023-05-05T14:10:14.132Z,21.88
2023-05-05T14:12:47.661Z,20.67
2023-05-05T14:15:17.193Z,19.91
2023-05-05T14:17:46.554Z,20.25
2023-05-05T14:20:16.064Z,19.13
2023-05-05T14:22:48.837Z,18.78
2023-05-05T14:25:18.691Z,19.93
2023-05-05T14:27:48.317Z,19.77
2023-05-05T14:30:18.300Z,18.14
2023-05-05T14:32:48.076Z,20.70
2023-05-05T14:35:17.299Z,22.00
2023-05-05T14:37:47.767Z,23.83
2023-05-05T14:40:17.480Z,25.32
2023-05-05T14:42:46.667Z,26.57
2023-05-05T14:45:18.035Z,26.97
2023-05-05T14:47:48.939Z,28.63
2023-05-05T14:50:18.071Z,29.14
2023-05-05T14:52:54.514Z,28.56
2023-05-05T14:55:25.060Z,26.69
2023-05-05T14:57:54.210Z,24.80
2023-05-05T15:00:23.886Z,24.59
2023-05-05T15:02:53.516Z,25.00
2023-05-05T15:05:23.055Z,21.51
2023-05-05T15:07:53.559Z,21.90
2023-05-05T15:10:23.264Z,21.33
2023-05-05T15:12:52.901Z,23.39
2023-05-05T15:15:25.729Z,25.81
2023-05-05T15:17:55.282Z,27.54
2023-05-05T15:20:25.175Z,28.20
2023-05-05T15:22:56.168Z,30.06
2023-05-05T15:25:26.177Z,30.96
2023-05-05T15:27:56.601Z,31.48
2023-05-05T15:30:26.959Z,31.09
2023-05-05T15:32:56.217Z,28.88
2023-05-05T15:35:29.713Z,25.63
2023-05-05T15:38:01.170Z,24.67
2023-05-05T15:40:31.954Z,26.12
2023-05-05T15:43:02.952Z,30.59
2023-05-05T15:45:32.554Z,32.64
2023-05-05T15:48:02.166Z,33.16
2023-05-05T15:50:31.870Z,35.36
2023-05-05T15:53:02.909Z,35.76
2023-05-05T15:55:32.713Z,35.58
2023-05-05T15:58:02.297Z,36.01
2023-05-05T16:00:33.411Z,36.49
2023-05-05T16:03:05.529Z,36.28
2023-05-05T16:05:34.831Z,37.32
2023-05-05T16:08:09.764Z,37.86
2023-05-05T16:10:39.743Z,38.22
2023-05-05T16:13:09.694Z,38.24
2023-05-05T16:15:42.457Z,38.21
2023-05-05T16:18:12.501Z,39.01
2023-05-05T16:20:44.819Z,38.82
2023-05-05T16:23:16.459Z,38.27
2023-05-05T16:25:46.242Z,38.45
2023-05-05T16:28:15.855Z,38.84
2023-05-05T16:30:45.598Z,39.68
2023-05-05T16:33:15.592Z,39.80
2023-05-05T16:35:50.977Z,40.40
2023-05-05T16:38:27.302Z,41.25
2023-05-05T16:40:56.711Z,41.70
2023-05-05T16:43:26.217Z,41.86
2023-05-05T16:45:56.083Z,42.55
2023-05-05T16:48:25.594Z,43.90
2023-05-05T16:50:57.269Z,44.02
2023-05-05T16:53:28.867Z,44.51
2023-05-05T16:55:59.000Z,44.55
2023-05-05T16:58:29.240Z,44.72
2023-05-05T17:01:02.223Z,45.63
2023-05-05T17:03:36.468Z,45.34
2023-05-05T17:06:13.227Z,45.45
2023-05-05T17:08:49.937Z,45.88
2023-05-05T17:11:21.910Z,46.21
2023-05-05T17:13:52.017Z,46.31
2023-05-05T17:16:35.413Z,46.56
2023-05-05T17:19:05.482Z,46.79
2023-05-05T17:21:35.189Z,46.85
2023-05-05T17:24:07.252Z,47.31
2023-05-05T17:26:36.832Z,47.68
2023-05-05T17:29:06.968Z,48.91
2023-05-05T17:31:39.436Z,49.29
2023-05-05T17:34:11.353Z,50.74
2023-05-05T17:36:44.806Z,51.78
2023-05-05T17:39:27.523Z,51.84
2023-05-05T17:41:57.617Z,52.54
2023-05-05T17:44:39.871Z,54.55
2023-05-05T17:47:15.690Z,56.24
2023-05-05T17:49:45.594Z,57.41
2023-05-05T17:52:15.497Z,59.05
2023-05-05T17:54:46.417Z,60.63
2023-05-05T17:57:17.065Z,61.93
2023-05-05T17:59:47.374Z,62.44
2023-05-05T18:02:18.140Z,62.99
2023-05-05T18:04:47.941Z,67.66
2023-05-05T18:07:17.897Z,66.08
2023-05-05T18:09:57.392Z,65.80
2023-05-05T18:12:27.577Z,66.42
2023-05-05T18:14:56.858Z,69.29
2023-05-05T18:17:26.476Z,68.57
2023-05-05T18:19:58.303Z,68.68
2023-05-05T18:22:29.426Z,70.98
2023-05-05T18:25:00.842Z,72.83
2023-05-05T18:27:32.671Z,72.77
2023-05-05T18:30:06.372Z,75.29
2023-05-05T18:32:39.007Z,78.88
2023-05-05T18:35:09.144Z,78.00
2023-05-05T18:37:39.777Z,81.17
2023-05-05T18:40:14.310Z,82.40
2023-05-05T18:42:47.395Z,81.80
2023-05-05T18:45:17.023Z,81.58
2023-05-05T18:47:46.409Z,83.45
2023-05-05T18:50:15.970Z,85.28
2023-05-05T18:52:45.791Z,81.84
2023-05-05T18:55:16.968Z,82.95
2023-05-05T18:57:46.981Z,83.44
2023-05-05T19:00:19.980Z,79.76
2023-05-05T19:02:49.830Z,80.62
2023-05-05T19:05:19.616Z,76.53
2023-05-05T19:07:52.206Z,73.88
2023-05-05T19:10:22.777Z,74.96
2023-05-05T19:12:52.009Z,72.11
2023-05-05T19:15:23.998Z,71.28
2023-05-05T19:17:55.862Z,70.48
2023-05-05T19:20:25.110Z,69.90
2023-05-05T19:22:55.264Z,71.60
2023-05-05T19:25:25.772Z,71.48
2023-05-05T19:27:56.117Z,74.78
2023-05-05T19:30:25.564Z,77.17
2023-05-05T19:32:55.498Z,91.97
2023-05-05T19:35:24.706Z,100.00
2023-05-05T19:37:58.026Z,100.00
2023-05-05T19:40:29.098Z,100.00
2023-05-05T19:42:58.795Z,100.00
2023-05-05T19:45:28.052Z,100.00
2023-05-05T19:47:58.073Z,100.00
2023-05-05T19:50:28.716Z,100.00
2023-05-05T19:52:58.164Z,100.00
2023-05-05T19:55:33.303Z,100.00
2023-05-05T19:58:07.247Z,100.00
2023-05-05T20:00:39.277Z,100.00
2023-05-05T20:03:08.967Z,100.00
2023-05-05T20:05:38.981Z,100.00
2023-05-05T20:08:08.784Z,100.00
2023-05-05T20:10:54.540Z,100.00
2023-05-05T20:13:28.161Z,100.00
2023-05-05T20:16:00.715Z,100.00
2023-05-05T20:18:32.734Z,100.00
2023-05-05T20:21:03.636Z,100.00
2023-05-05T20:23:34.073Z,100.00
2023-05-05T20:26:08.005Z,100.00
2023-05-05T20:28:40.412Z,100.00
2023-05-05T20:31:12.149Z,100.00
2023-05-05T20:33:43.645Z,100.00
2023-05-05T20:36:13.441Z,100.00
2023-05-05T20:38:42.857Z,100.00
2023-05-05T20:41:16.482Z,100.00
2023-05-05T20:43:45.624Z,100.00
2023-05-05T20:46:14.732Z,100.00
2023-05-05T20:48:44.554Z,100.00
2023-05-05T20:51:16.834Z,100.00
2023-05-05T20:53:47.287Z,100.00
2023-05-05T20:56:17.661Z,100.00
2023-05-05T20:58:47.147Z,100.00
2023-05-05T21:01:16.469Z,100.00
2023-05-05T21:03:46.190Z,100.00
2023-05-05T21:06:17.587Z,100.00
2023-05-05T21:08:47.343Z,100.00
2023-05-05T21:11:18.121Z,100.00
2023-05-05T21:13:47.602Z,100.00
2023-05-05T21:16:17.059Z,100.00
2023-05-05T21:18:47.593Z,100.00
2023-05-05T21:21:17.062Z,100.00
2023-05-05T21:23:48.536Z,100.00
2023-05-05T21:26:19.302Z,100.00
2023-05-05T21:28:48.956Z,100.00
2023-05-05T21:31:22.275Z,100.00
2023-05-05T21:33:51.860Z,100.00
2023-05-05T21:36:21.429Z,100.00
2023-05-05T21:38:51.129Z,100.00
2023-05-05T21:41:22.246Z,100.00
2023-05-05T21:43:51.541Z,100.00
2023-05-05T21:46:21.205Z,100.00
2023-05-05T21:48:50.571Z,100.00
2023-05-05T21:51:22.742Z,100.00
2023-05-05T21:53:52.330Z,100.00
2023-05-05T21:56:23.222Z,100.00
2023-05-05T21:58:52.228Z,100.00
2023-05-05T22:01:21.514Z,100.00
2023-05-05T22:03:50.994Z,100.00
2023-05-05T22:06:20.636Z,100.00
2023-05-05T22:08:50.436Z,100.00
2023-05-05T22:11:20.358Z,100.00
2023-05-05T22:13:51.906Z,100.00
2023-05-05T22:16:21.141Z,100.00
2023-05-05T22:18:50.975Z,100.00
2023-05-05T22:21:20.506Z,100.00
2023-05-05T22:23:49.806Z,100.00
2023-05-05T22:26:18.817Z,100.00
2023-05-05T22:28:47.846Z,100.00
2023-05-05T22:31:18.786Z,100.00
2023-05-05T22:33:48.148Z,100.00
2023-05-05T22:36:17.311Z,100.00
2023-05-05T22:38:48.742Z,100.00
2023-05-05T22:41:45.257Z,100.00
2023-05-05T22:44:15.315Z,100.00
2023-05-05T22:46:46.103Z,100.00
2023-05-05T22:49:16.192Z,100.00
2023-05-05T22:51:45.328Z,100.00
2023-05-05T22:54:14.517Z,100.00
2023-05-05T22:56:43.706Z,100.00
2023-05-05T22:59:13.115Z,100.00
2023-05-05T23:01:42.475Z,100.00
2023-05-05T23:04:13.138Z,100.00
2023-05-05T23:06:42.611Z,100.00
2023-05-05T23:09:11.919Z,100.00
2023-05-05T23:11:41.026Z,100.00
2023-05-05T23:14:10.242Z,100.00
2023-05-05T23:16:39.365Z,100.00
2023-05-05T23:19:08.618Z,100.00
2023-05-05T23:21:49.306Z,100.00
2023-05-05T23:24:21.576Z,100.00
2023-05-05T23:26:52.075Z,100.00
2023-05-05T23:29:24.027Z,100.00
2023-05-05T23:31:57.009Z,100.00
2023-05-05T23:34:28.309Z,100.00
2023-05-05T23:36:59.010Z,100.00
2023-05-05T23:39:28.260Z,100.00
2023-05-05T23:41:57.747Z,100.00
2023-05-05T23:44:27.779Z,100.00
2023-05-05T23:46:56.980Z,100.00
2023-05-05T23:49:26.656Z,100.00
2023-05-05T23:51:55.850Z,100.00
2023-05-05T23:54:26.345Z,100.00
2023-05-05T23:56:55.787Z,100.00
2023-05-05T23:59:25.344Z,100.00
